LFLC/CFE METAR and TAF weather

Enter ICAO airport designator
Station Type Date Time Source
LFLC METAR 2019/10/21 03:00 UTC NOAA

LFLC 210300Z AUTO 33003KT 9999 SCT045 09/09 Q1014 TEMPO 3000 BR BKN006


Station Type Date Time Source
LFLC Decoded METAR 2019/10/21 03:00 UTC NOAA

Clermont-Ferrand, France (LFLC) 45-47N 003-10E 330M
Oct 20, 2019 - 11:00 PM EDT / 2019.10.21 0300 UTC
Wind: from the NNW (330 degrees) at 3 MPH (3 KT):0
Visibility: greater than 7 mile(s):0
Sky conditions: partly cloudy
Temperature: 48 F (9 C)
Dew Point: 48 F (9 C)
Relative Humidity: 100%
Pressure (altimeter): 29.94 in. Hg (1014 hPa)
ob: LFLC 210300Z AUTO 33003KT 9999 SCT045 09/09 Q1014 TEMPO 3000 BR BKN006
cycle: 3

Station Type Date Time Source
LFLC TAF 2019/10/21 03:42 UTC NOAA

TAF LFLC 210200Z 2103/2203 VRB03KT 9999 SCT040
TEMPO 2103/2108 3000 BR PROB30
TEMPO 2103/2108 BKN006
BECMG 2115/2118 BKN025
BECMG 2118/2121 BKN012 PROB40 2200/2203 BKN006

Example: see airport list